sensor_id;sensor_type;location;lat;lon;timestamp;pressure;altitude;pressure_sealevel;temperature;humidity
55801;BME280;41730;51.960;20.158;2022-09-09T00:01:26;99807.36;;;13.86;75.55
55801;BME280;41730;51.960;20.158;2022-09-09T00:04:05;99818.98;;;13.88;75.65
55801;BME280;41730;51.960;20.158;2022-09-09T00:06:50;99822.48;;;13.99;75.37
55801;BME280;41730;51.960;20.158;2022-09-09T00:09:27;99819.94;;;14.06;75.06
55801;BME280;41730;51.960;20.158;2022-09-09T00:12:02;99816.10;;;14.13;75.05
55801;BME280;41730;51.960;20.158;2022-09-09T00:14:42;99816.98;;;14.04;74.76
55801;BME280;41730;51.960;20.158;2022-09-09T00:17:20;99817.92;;;13.98;75.78
55801;BME280;41730;51.960;20.158;2022-09-09T00:20:01;99823.51;;;14.14;75.21
55801;BME280;41730;51.960;20.158;2022-09-09T00:22:33;99823.66;;;14.13;74.89
55801;BME280;41730;51.960;20.158;2022-09-09T00:25:11;99821.61;;;14.14;74.94
55801;BME280;41730;51.960;20.158;2022-09-09T00:27:46;99815.95;;;14.17;74.90
55801;BME280;41730;51.960;20.158;2022-09-09T00:30:22;99804.31;;;14.17;74.99
55801;BME280;41730;51.960;20.158;2022-09-09T00:32:58;99809.70;;;14.15;75.12
55801;BME280;41730;51.960;20.158;2022-09-09T00:35:33;99808.55;;;14.18;75.23
55801;BME280;41730;51.960;20.158;2022-09-09T00:38:12;99809.98;;;14.14;75.32
55801;BME280;41730;51.960;20.158;2022-09-09T00:40:50;99809.77;;;14.07;75.27
55801;BME280;41730;51.960;20.158;2022-09-09T00:43:31;99808.30;;;14.13;75.21
55801;BME280;41730;51.960;20.158;2022-09-09T00:49:32;99819.17;;;14.19;74.87
55801;BME280;41730;51.960;20.158;2022-09-09T00:52:22;99820.38;;;14.27;74.86
55801;BME280;41730;51.960;20.158;2022-09-09T00:55:02;99815.59;;;14.27;74.84
55801;BME280;41730;51.960;20.158;2022-09-09T00:57:38;99817.45;;;14.21;74.75
55801;BME280;41730;51.960;20.158;2022-09-09T01:00:23;99817.55;;;14.25;74.99
55801;BME280;41730;51.960;20.158;2022-09-09T01:03:02;99811.66;;;14.33;74.74
55801;BME280;41730;51.960;20.158;2022-09-09T01:05:41;99809.38;;;14.23;74.68
55801;BME280;41730;51.960;20.158;2022-09-09T01:08:31;99810.20;;;14.29;74.91
55801;BME280;41730;51.960;20.158;2022-09-09T01:11:13;99817.36;;;14.16;75.36
55801;BME280;41730;51.960;20.158;2022-09-09T01:13:52;99820.60;;;14.25;75.37
55801;BME280;41730;51.960;20.158;2022-09-09T01:16:24;99817.50;;;14.24;75.24
55801;BME280;41730;51.960;20.158;2022-09-09T01:18:58;99823.25;;;14.26;75.50
55801;BME280;41730;51.960;20.158;2022-09-09T01:21:38;99822.45;;;14.18;75.94
55801;BME280;41730;51.960;20.158;2022-09-09T01:24:24;99823.50;;;14.24;75.70
55801;BME280;41730;51.960;20.158;2022-09-09T01:27:00;99822.65;;;14.34;75.59
55801;BME280;41730;51.960;20.158;2022-09-09T01:29:32;99823.46;;;14.32;75.65
55801;BME280;41730;51.960;20.158;2022-09-09T01:32:40;99822.30;;;14.28;76.04
55801;BME280;41730;51.960;20.158;2022-09-09T01:35:18;99823.80;;;14.32;75.76
55801;BME280;41730;51.960;20.158;2022-09-09T01:37:53;99821.44;;;14.39;75.86
55801;BME280;41730;51.960;20.158;2022-09-09T01:40:25;99822.98;;;14.48;75.56
55801;BME280;41730;51.960;20.158;2022-09-09T01:42:57;99827.44;;;14.36;75.68
55801;BME280;41730;51.960;20.158;2022-09-09T01:45:29;99823.88;;;14.29;76.44
55801;BME280;41730;51.960;20.158;2022-09-09T01:48:02;99822.14;;;14.29;76.29
55801;BME280;41730;51.960;20.158;2022-09-09T01:50:33;99824.79;;;14.29;76.63
55801;BME280;41730;51.960;20.158;2022-09-09T01:53:05;99822.50;;;14.38;76.31
55801;BME280;41730;51.960;20.158;2022-09-09T01:55:40;99823.30;;;14.40;76.22
55801;BME280;41730;51.960;20.158;2022-09-09T01:58:23;99823.40;;;14.42;76.01
55801;BME280;41730;51.960;20.158;2022-09-09T02:01:08;99819.55;;;14.50;75.78
55801;BME280;41730;51.960;20.158;2022-09-09T02:03:49;99815.61;;;14.48;75.71
55801;BME280;41730;51.960;20.158;2022-09-09T02:06:29;99813.50;;;14.49;75.40
55801;BME280;41730;51.960;20.158;2022-09-09T02:09:04;99811.90;;;14.44;75.63
55801;BME280;41730;51.960;20.158;2022-09-09T02:11:36;99805.82;;;14.34;75.98
55801;BME280;41730;51.960;20.158;2022-09-09T02:14:12;99803.89;;;14.30;75.97
55801;BME280;41730;51.960;20.158;2022-09-09T02:16:47;99814.48;;;14.35;75.88
55801;BME280;41730;51.960;20.158;2022-09-09T02:19:23;99818.72;;;14.37;75.86
55801;BME280;41730;51.960;20.158;2022-09-09T02:21:57;99824.29;;;14.37;75.82
55801;BME280;41730;51.960;20.158;2022-09-09T02:24:33;99816.57;;;14.35;75.77
55801;BME280;41730;51.960;20.158;2022-09-09T02:27:08;99825.25;;;14.33;75.94
55801;BME280;41730;51.960;20.158;2022-09-09T02:29:41;99820.98;;;14.43;75.92
55801;BME280;41730;51.960;20.158;2022-09-09T02:32:17;99821.20;;;14.50;75.75
55801;BME280;41730;51.960;20.158;2022-09-09T02:34:51;99822.87;;;14.51;75.66
55801;BME280;41730;51.960;20.158;2022-09-09T02:37:24;99826.59;;;14.46;75.97
55801;BME280;41730;51.960;20.158;2022-09-09T02:40:00;99829.17;;;14.31;75.82
55801;BME280;41730;51.960;20.158;2022-09-09T02:42:32;99830.14;;;14.32;76.25
55801;BME280;41730;51.960;20.158;2022-09-09T02:45:03;99826.06;;;14.36;76.00
55801;BME280;41730;51.960;20.158;2022-09-09T02:47:37;99828.45;;;14.33;76.46
55801;BME280;41730;51.960;20.158;2022-09-09T02:50:14;99829.95;;;14.49;76.33
55801;BME280;41730;51.960;20.158;2022-09-09T02:53:09;99830.66;;;14.59;75.94
55801;BME280;41730;51.960;20.158;2022-09-09T02:55:41;99823.69;;;14.57;75.97
55801;BME280;41730;51.960;20.158;2022-09-09T02:58:15;99826.38;;;14.39;76.05
55801;BME280;41730;51.960;20.158;2022-09-09T03:00:50;99825.11;;;14.41;76.38
55801;BME280;41730;51.960;20.158;2022-09-09T03:03:22;99832.15;;;14.36;76.75
55801;BME280;41730;51.960;20.158;2022-09-09T03:05:53;99830.60;;;14.41;76.49
55801;BME280;41730;51.960;20.158;2022-09-09T03:08:26;99834.12;;;14.44;76.42
55801;BME280;41730;51.960;20.158;2022-09-09T03:10:59;99835.16;;;14.39;76.82
55801;BME280;41730;51.960;20.158;2022-09-09T03:13:32;99834.81;;;14.45;76.51
55801;BME280;41730;51.960;20.158;2022-09-09T03:16:04;99835.89;;;14.43;76.68
55801;BME280;41730;51.960;20.158;2022-09-09T03:18:35;99840.55;;;14.39;76.90
55801;BME280;41730;51.960;20.158;2022-09-09T03:21:06;99835.70;;;14.41;76.78
55801;BME280;41730;51.960;20.158;2022-09-09T03:23:38;99835.45;;;14.35;77.00
55801;BME280;41730;51.960;20.158;2022-09-09T03:26:09;99832.62;;;14.39;77.09
55801;BME280;41730;51.960;20.158;2022-09-09T03:28:41;99837.59;;;14.50;77.13
55801;BME280;41730;51.960;20.158;2022-09-09T03:31:12;99836.09;;;14.64;76.57
55801;BME280;41730;51.960;20.158;2022-09-09T03:33:44;99830.56;;;14.65;76.38
55801;BME280;41730;51.960;20.158;2022-09-09T03:36:16;99831.27;;;14.58;76.87
55801;BME280;41730;51.960;20.158;2022-09-09T03:38:50;99832.44;;;14.59;76.73
55801;BME280;41730;51.960;20.158;2022-09-09T03:41:26;99830.06;;;14.53;77.28
55801;BME280;41730;51.960;20.158;2022-09-09T03:44:04;99832.53;;;14.53;77.27
55801;BME280;41730;51.960;20.158;2022-09-09T03:46:37;99842.40;;;14.53;77.33
55801;BME280;41730;51.960;20.158;2022-09-09T03:49:08;99851.05;;;14.60;77.38
55801;BME280;41730;51.960;20.158;2022-09-09T03:51:40;99851.13;;;14.64;77.07
55801;BME280;41730;51.960;20.158;2022-09-09T03:54:12;99850.18;;;14.55;77.45
55801;BME280;41730;51.960;20.158;2022-09-09T03:56:43;99848.61;;;14.58;77.33
55801;BME280;41730;51.960;20.158;2022-09-09T03:59:15;99848.53;;;14.45;77.81
55801;BME280;41730;51.960;20.158;2022-09-09T04:01:46;99846.84;;;14.48;77.97
55801;BME280;41730;51.960;20.158;2022-09-09T04:04:18;99845.02;;;14.63;77.79
55801;BME280;41730;51.960;20.158;2022-09-09T04:06:50;99845.85;;;14.65;77.56
55801;BME280;41730;51.960;20.158;2022-09-09T04:09:21;99852.96;;;14.55;77.72
55801;BME280;41730;51.960;20.158;2022-09-09T04:11:52;99856.27;;;14.52;78.14
55801;BME280;41730;51.960;20.158;2022-09-09T04:14:24;99854.45;;;14.51;78.39
55801;BME280;41730;51.960;20.158;2022-09-09T04:16:58;99849.12;;;14.56;78.26
55801;BME280;41730;51.960;20.158;2022-09-09T04:19:30;99856.98;;;14.60;77.99
55801;BME280;41730;51.960;20.158;2022-09-09T04:22:01;99856.98;;;14.54;78.50
55801;BME280;41730;51.960;20.158;2022-09-09T04:24:33;99856.45;;;14.47;78.55
55801;BME280;41730;51.960;20.158;2022-09-09T04:27:05;99862.52;;;14.38;79.27
55801;BME280;41730;51.960;20.158;2022-09-09T04:29:36;99867.96;;;14.50;78.86
55801;BME280;41730;51.960;20.158;2022-09-09T04:32:08;99863.80;;;14.49;78.99
55801;BME280;41730;51.960;20.158;2022-09-09T04:34:40;99860.55;;;14.45;79.17
55801;BME280;41730;51.960;20.158;2022-09-09T04:37:13;99861.02;;;14.33;79.54
55801;BME280;41730;51.960;20.158;2022-09-09T04:39:44;99861.83;;;14.43;79.52
55801;BME280;41730;51.960;20.158;2022-09-09T04:42:16;99859.85;;;14.51;79.32
55801;BME280;41730;51.960;20.158;2022-09-09T04:44:49;99863.00;;;14.72;78.56
55801;BME280;41730;51.960;20.158;2022-09-09T04:47:20;99860.75;;;14.70;78.66
55801;BME280;41730;51.960;20.158;2022-09-09T04:49:52;99863.96;;;14.76;78.65
55801;BME280;41730;51.960;20.158;2022-09-09T04:52:24;99867.05;;;14.92;78.31
55801;BME280;41730;51.960;20.158;2022-09-09T04:54:56;99872.39;;;14.83;78.46
55801;BME280;41730;51.960;20.158;2022-09-09T04:57:27;99873.95;;;14.90;78.05
55801;BME280;41730;51.960;20.158;2022-09-09T05:00:02;99871.17;;;14.92;78.34
55801;BME280;41730;51.960;20.158;2022-09-09T05:02:36;99872.47;;;14.89;78.44
55801;BME280;41730;51.960;20.158;2022-09-09T05:05:08;99870.77;;;14.89;78.34
55801;BME280;41730;51.960;20.158;2022-09-09T05:07:41;99869.83;;;14.89;78.31
55801;BME280;41730;51.960;20.158;2022-09-09T05:10:13;99870.20;;;14.81;78.63
55801;BME280;41730;51.960;20.158;2022-09-09T05:12:53;99867.39;;;14.82;78.87
55801;BME280;41730;51.960;20.158;2022-09-09T05:15:25;99870.02;;;14.92;78.68
55801;BME280;41730;51.960;20.158;2022-09-09T05:18:00;99873.57;;;15.02;78.35
55801;BME280;41730;51.960;20.158;2022-09-09T05:20:32;99873.52;;;15.03;78.45
55801;BME280;41730;51.960;20.158;2022-09-09T05:23:03;99874.53;;;15.01;78.59
55801;BME280;41730;51.960;20.158;2022-09-09T05:25:35;99869.64;;;14.98;78.88
55801;BME280;41730;51.960;20.158;2022-09-09T05:28:06;99873.16;;;14.96;79.12
55801;BME280;41730;51.960;20.158;2022-09-09T05:30:38;99869.23;;;14.93;79.38
55801;BME280;41730;51.960;20.158;2022-09-09T05:33:09;99874.72;;;14.98;79.48
55801;BME280;41730;51.960;20.158;2022-09-09T05:35:41;99875.29;;;15.22;78.73
55801;BME280;41730;51.960;20.158;2022-09-09T05:38:13;99871.04;;;15.39;78.37
55801;BME280;41730;51.960;20.158;2022-09-09T05:40:49;99872.79;;;15.44;77.98
55801;BME280;41730;51.960;20.158;2022-09-09T05:43:22;99874.34;;;15.51;77.93
55801;BME280;41730;51.960;20.158;2022-09-09T05:46:03;99878.64;;;15.53;77.80
55801;BME280;41730;51.960;20.158;2022-09-09T05:48:37;99881.36;;;15.54;77.70
55801;BME280;41730;51.960;20.158;2022-09-09T05:51:10;99887.40;;;15.51;78.03
55801;BME280;41730;51.960;20.158;2022-09-09T05:53:43;99885.73;;;15.56;78.05
55801;BME280;41730;51.960;20.158;2022-09-09T05:56:16;99888.99;;;15.66;77.82
55801;BME280;41730;51.960;20.158;2022-09-09T05:58:48;99889.58;;;15.59;77.93
55801;BME280;41730;51.960;20.158;2022-09-09T06:01:21;99892.14;;;15.48;78.25
55801;BME280;41730;51.960;20.158;2022-09-09T06:03:53;99891.34;;;15.42;78.82
55801;BME280;41730;51.960;20.158;2022-09-09T06:06:27;99894.48;;;15.55;78.53
55801;BME280;41730;51.960;20.158;2022-09-09T06:09:02;99891.23;;;15.58;78.43
55801;BME280;41730;51.960;20.158;2022-09-09T06:11:37;99892.63;;;15.57;78.65
55801;BME280;41730;51.960;20.158;2022-09-09T06:14:10;99894.87;;;15.59;78.77
55801;BME280;41730;51.960;20.158;2022-09-09T06:16:41;99897.59;;;15.60;78.98
55801;BME280;41730;51.960;20.158;2022-09-09T06:19:14;99900.71;;;15.65;78.93
55801;BME280;41730;51.960;20.158;2022-09-09T06:21:45;99901.38;;;15.70;78.86
55801;BME280;41730;51.960;20.158;2022-09-09T06:24:19;99903.05;;;15.71;78.76
55801;BME280;41730;51.960;20.158;2022-09-09T06:26:51;99900.70;;;15.80;78.82
55801;BME280;41730;51.960;20.158;2022-09-09T06:29:23;99905.52;;;15.96;78.36
55801;BME280;41730;51.960;20.158;2022-09-09T06:31:55;99904.51;;;16.08;77.71
55801;BME280;41730;51.960;20.158;2022-09-09T06:34:28;99904.72;;;15.98;77.91
55801;BME280;41730;51.960;20.158;2022-09-09T06:37:00;99903.61;;;15.90;78.37
55801;BME280;41730;51.960;20.158;2022-09-09T06:39:31;99906.93;;;15.88;78.47
55801;BME280;41730;51.960;20.158;2022-09-09T06:42:03;99906.23;;;15.93;78.49
55801;BME280;41730;51.960;20.158;2022-09-09T06:44:35;99907.70;;;15.98;78.44
55801;BME280;41730;51.960;20.158;2022-09-09T06:47:06;99908.39;;;15.87;78.95
55801;BME280;41730;51.960;20.158;2022-09-09T06:49:38;99910.70;;;15.92;79.01
55801;BME280;41730;51.960;20.158;2022-09-09T06:52:10;99911.04;;;15.87;79.07
55801;BME280;41730;51.960;20.158;2022-09-09T06:54:42;99913.10;;;15.85;79.36
55801;BME280;41730;51.960;20.158;2022-09-09T06:57:15;99913.27;;;15.93;79.53
55801;BME280;41730;51.960;20.158;2022-09-09T07:00:07;99912.30;;;16.03;78.94
55801;BME280;41730;51.960;20.158;2022-09-09T07:02:39;99919.04;;;16.14;78.79
55801;BME280;41730;51.960;20.158;2022-09-09T07:05:11;99919.39;;;16.19;78.26
55801;BME280;41730;51.960;20.158;2022-09-09T07:07:43;99919.74;;;16.20;78.35
55801;BME280;41730;51.960;20.158;2022-09-09T07:10:17;99924.59;;;16.14;78.65
55801;BME280;41730;51.960;20.158;2022-09-09T07:12:52;99923.33;;;16.09;78.92
55801;BME280;41730;51.960;20.158;2022-09-09T07:15:24;99928.20;;;16.02;79.52
55801;BME280;41730;51.960;20.158;2022-09-09T07:17:56;99933.51;;;16.21;79.02
55801;BME280;41730;51.960;20.158;2022-09-09T07:20:34;99935.30;;;16.22;78.89
55801;BME280;41730;51.960;20.158;2022-09-09T07:23:05;99940.40;;;16.43;78.34
55801;BME280;41730;51.960;20.158;2022-09-09T07:25:37;99941.15;;;16.49;77.96
55801;BME280;41730;51.960;20.158;2022-09-09T07:28:08;99942.03;;;16.54;77.90
55801;BME280;41730;51.960;20.158;2022-09-09T07:30:40;99945.48;;;16.52;78.18
55801;BME280;41730;51.960;20.158;2022-09-09T07:33:12;99948.86;;;16.53;78.08
55801;BME280;41730;51.960;20.158;2022-09-09T07:35:44;99953.14;;;16.62;78.08
55801;BME280;41730;51.960;20.158;2022-09-09T07:38:17;99954.45;;;16.57;78.40
55801;BME280;41730;51.960;20.158;2022-09-09T07:40:48;99955.33;;;16.71;78.08
55801;BME280;41730;51.960;20.158;2022-09-09T07:43:25;99957.08;;;16.77;77.80
55801;BME280;41730;51.960;20.158;2022-09-09T07:46:00;99955.38;;;16.78;77.95
55801;BME280;41730;51.960;20.158;2022-09-09T07:48:32;99952.72;;;16.88;77.92
55801;BME280;41730;51.960;20.158;2022-09-09T07:51:09;99958.45;;;16.91;77.89
55801;BME280;41730;51.960;20.158;2022-09-09T07:53:42;99958.33;;;17.07;77.44
55801;BME280;41730;51.960;20.158;2022-09-09T07:56:15;99959.45;;;17.13;77.43
55801;BME280;41730;51.960;20.158;2022-09-09T07:58:48;99964.80;;;17.17;77.45
55801;BME280;41730;51.960;20.158;2022-09-09T08:01:22;99964.35;;;17.30;77.23
55801;BME280;41730;51.960;20.158;2022-09-09T08:03:58;99963.42;;;17.51;76.40
55801;BME280;41730;51.960;20.158;2022-09-09T08:06:35;99961.08;;;17.63;75.98
55801;BME280;41730;51.960;20.158;2022-09-09T08:09:07;99967.34;;;17.71;75.75
55801;BME280;41730;51.960;20.158;2022-09-09T08:11:41;99972.27;;;17.57;76.04
55801;BME280;41730;51.960;20.158;2022-09-09T08:14:15;99967.57;;;17.59;76.17
55801;BME280;41730;51.960;20.158;2022-09-09T08:16:47;99969.79;;;17.77;75.59
55801;BME280;41730;51.960;20.158;2022-09-09T08:19:19;99974.17;;;17.79;75.57
55801;BME280;41730;51.960;20.158;2022-09-09T08:21:51;99979.44;;;17.75;75.70
55801;BME280;41730;51.960;20.158;2022-09-09T08:24:24;99984.40;;;17.65;76.13
55801;BME280;41730;51.960;20.158;2022-09-09T08:26:56;99985.77;;;17.60;76.60
55801;BME280;41730;51.960;20.158;2022-09-09T08:29:27;99984.52;;;17.72;76.01
55801;BME280;41730;51.960;20.158;2022-09-09T08:31:59;99985.35;;;17.90;75.87
55801;BME280;41730;51.960;20.158;2022-09-09T08:34:31;99988.52;;;18.08;75.13
55801;BME280;41730;51.960;20.158;2022-09-09T08:37:04;99987.64;;;18.17;75.04
55801;BME280;41730;51.960;20.158;2022-09-09T08:39:36;99990.72;;;18.32;74.65
55801;BME280;41730;51.960;20.158;2022-09-09T08:42:26;99995.56;;;18.35;74.56
55801;BME280;41730;51.960;20.158;2022-09-09T08:45:14;99997.73;;;18.53;74.01
55801;BME280;41730;51.960;20.158;2022-09-09T08:47:59;99997.02;;;18.69;73.52
55801;BME280;41730;51.960;20.158;2022-09-09T08:50:36;99996.35;;;18.77;73.20
55801;BME280;41730;51.960;20.158;2022-09-09T08:53:14;99998.60;;;18.89;72.48
55801;BME280;41730;51.960;20.158;2022-09-09T08:55:49;99997.70;;;18.89;72.45
55801;BME280;41730;51.960;20.158;2022-09-09T08:58:25;100000.78;;;18.96;72.14
55801;BME280;41730;51.960;20.158;2022-09-09T09:01:14;99999.84;;;18.93;72.23
55801;BME280;41730;51.960;20.158;2022-09-09T09:04:00;99999.35;;;19.11;71.73
55801;BME280;41730;51.960;20.158;2022-09-09T09:06:44;100000.27;;;19.12;71.77
55801;BME280;41730;51.960;20.158;2022-09-09T09:09:24;100001.51;;;19.16;71.37
55801;BME280;41730;51.960;20.158;2022-09-09T09:11:59;99994.93;;;19.19;71.12
55801;BME280;41730;51.960;20.158;2022-09-09T09:14:34;99999.21;;;19.20;71.08
55801;BME280;41730;51.960;20.158;2022-09-09T09:17:09;99998.23;;;19.12;71.22
55801;BME280;41730;51.960;20.158;2022-09-09T09:19:45;100005.89;;;19.09;71.23
55801;BME280;41730;51.960;20.158;2022-09-09T09:22:20;100007.30;;;19.22;70.72
55801;BME280;41730;51.960;20.158;2022-09-09T09:24:55;100004.10;;;19.24;70.67
55801;BME280;41730;51.960;20.158;2022-09-09T09:27:34;99999.16;;;19.19;70.65
55801;BME280;41730;51.960;20.158;2022-09-09T09:30:16;99998.11;;;19.21;70.47
55801;BME280;41730;51.960;20.158;2022-09-09T09:33:05;99997.08;;;19.20;70.24
55801;BME280;41730;51.960;20.158;2022-09-09T09:35:40;100003.64;;;19.23;70.41
55801;BME280;41730;51.960;20.158;2022-09-09T09:38:19;100005.98;;;19.28;70.48
55801;BME280;41730;51.960;20.158;2022-09-09T09:41:05;100004.91;;;19.44;70.05
55801;BME280;41730;51.960;20.158;2022-09-09T09:43:39;100008.58;;;19.57;69.66
55801;BME280;41730;51.960;20.158;2022-09-09T09:46:19;100012.62;;;19.63;69.20
55801;BME280;41730;51.960;20.158;2022-09-09T09:49:00;100012.80;;;19.67;69.10
55801;BME280;41730;51.960;20.158;2022-09-09T09:51:33;100021.79;;;19.80;68.82
55801;BME280;41730;51.960;20.158;2022-09-09T09:54:13;100029.41;;;19.83;68.44
55801;BME280;41730;51.960;20.158;2022-09-09T09:56:47;100028.67;;;19.83;67.97
55801;BME280;41730;51.960;20.158;2022-09-09T09:59:36;100033.20;;;19.79;68.23
55801;BME280;41730;51.960;20.158;2022-09-09T10:02:22;100028.44;;;19.98;67.99
55801;BME280;41730;51.960;20.158;2022-09-09T10:05:05;100029.04;;;20.08;67.64
55801;BME280;41730;51.960;20.158;2022-09-09T10:07:38;100032.41;;;20.18;67.33
55801;BME280;41730;51.960;20.158;2022-09-09T10:10:23;100034.13;;;20.06;67.38
55801;BME280;41730;51.960;20.158;2022-09-09T10:13:04;100033.95;;;19.86;67.90
55801;BME280;41730;51.960;20.158;2022-09-09T10:15:47;100034.44;;;19.85;68.02
55801;BME280;41730;51.960;20.158;2022-09-09T10:18:48;100037.52;;;19.95;67.58
55801;BME280;41730;51.960;20.158;2022-09-09T10:21:41;100038.27;;;19.88;67.77
55801;BME280;41730;51.960;20.158;2022-09-09T10:27:30;100036.35;;;20.03;67.58
55801;BME280;41730;51.960;20.158;2022-09-09T10:30:14;100040.23;;;20.14;67.32
55801;BME280;41730;51.960;20.158;2022-09-09T10:33:00;100041.77;;;20.17;67.37
55801;BME280;41730;51.960;20.158;2022-09-09T10:35:42;100039.63;;;20.22;67.08
55801;BME280;41730;51.960;20.158;2022-09-09T10:38:18;100044.13;;;20.20;66.63
55801;BME280;41730;51.960;20.158;2022-09-09T10:41:11;100051.48;;;20.20;66.71
55801;BME280;41730;51.960;20.158;2022-09-09T10:44:11;100056.08;;;20.26;66.17
55801;BME280;41730;51.960;20.158;2022-09-09T10:50:01;100062.73;;;20.34;66.09
55801;BME280;41730;51.960;20.158;2022-09-09T10:52:44;100063.27;;;20.35;65.81
55801;BME280;41730;51.960;20.158;2022-09-09T10:55:23;100065.27;;;20.23;65.82
55801;BME280;41730;51.960;20.158;2022-09-09T10:57:59;100058.39;;;20.20;65.99
55801;BME280;41730;51.960;20.158;2022-09-09T11:00:40;100060.80;;;20.31;65.96
55801;BME280;41730;51.960;20.158;2022-09-09T11:03:19;100062.78;;;20.47;65.67
55801;BME280;41730;51.960;20.158;2022-09-09T11:05:53;100062.44;;;20.55;65.17
55801;BME280;41730;51.960;20.158;2022-09-09T11:08:29;100064.27;;;20.54;64.93
55801;BME280;41730;51.960;20.158;2022-09-09T11:11:06;100067.27;;;20.50;65.07
55801;BME280;41730;51.960;20.158;2022-09-09T11:13:46;100073.41;;;20.45;65.53
55801;BME280;41730;51.960;20.158;2022-09-09T11:16:27;100078.05;;;20.34;65.72
55801;BME280;41730;51.960;20.158;2022-09-09T11:19:04;100085.08;;;20.18;66.34
55801;BME280;41730;51.960;20.158;2022-09-09T11:21:44;100085.36;;;20.15;66.66
55801;BME280;41730;51.960;20.158;2022-09-09T11:24:22;100085.60;;;20.27;66.38
55801;BME280;41730;51.960;20.158;2022-09-09T11:26:57;100085.20;;;20.35;66.06
55801;BME280;41730;51.960;20.158;2022-09-09T11:29:56;100091.59;;;20.22;66.41
55801;BME280;41730;51.960;20.158;2022-09-09T11:32:49;100091.88;;;20.21;66.46
55801;BME280;41730;51.960;20.158;2022-09-09T11:35:33;100089.67;;;20.34;66.15
55801;BME280;41730;51.960;20.158;2022-09-09T11:38:21;100087.81;;;20.37;66.17
55801;BME280;41730;51.960;20.158;2022-09-09T11:41:03;100092.10;;;20.50;65.84
55801;BME280;41730;51.960;20.158;2022-09-09T11:43:41;100087.99;;;20.55;65.69
55801;BME280;41730;51.960;20.158;2022-09-09T11:46:14;100085.16;;;20.55;65.40
55801;BME280;41730;51.960;20.158;2022-09-09T11:48:59;100086.41;;;20.49;65.71
55801;BME280;41730;51.960;20.158;2022-09-09T11:51:30;100087.58;;;20.59;65.58
55801;BME280;41730;51.960;20.158;2022-09-09T11:54:04;100094.05;;;20.73;65.15
55801;BME280;41730;51.960;20.158;2022-09-09T11:56:54;100091.38;;;20.87;65.01
55801;BME280;41730;51.960;20.158;2022-09-09T11:59:28;100090.16;;;20.90;64.92
55801;BME280;41730;51.960;20.158;2022-09-09T12:01:59;100088.46;;;20.94;64.07
55801;BME280;41730;51.960;20.158;2022-09-09T12:04:34;100085.27;;;20.89;64.49
55801;BME280;41730;51.960;20.158;2022-09-09T12:07:25;100078.66;;;21.10;64.09
55801;BME280;41730;51.960;20.158;2022-09-09T12:10:02;100078.84;;;21.15;63.68
55801;BME280;41730;51.960;20.158;2022-09-09T12:12:36;100079.86;;;21.10;63.56
55801;BME280;41730;51.960;20.158;2022-09-09T12:15:25;100071.67;;;21.03;63.34
55801;BME280;41730;51.960;20.158;2022-09-09T12:17:59;100069.78;;;21.01;63.80
55801;BME280;41730;51.960;20.158;2022-09-09T12:20:37;100067.02;;;20.96;64.04
55801;BME280;41730;51.960;20.158;2022-09-09T12:23:21;100065.59;;;21.02;64.18
55801;BME280;41730;51.960;20.158;2022-09-09T12:26:01;100070.35;;;21.08;63.77
55801;BME280;41730;51.960;20.158;2022-09-09T12:28:57;100068.46;;;20.92;64.05
55801;BME280;41730;51.960;20.158;2022-09-09T12:31:38;100066.73;;;20.92;64.10
55801;BME280;41730;51.960;20.158;2022-09-09T12:34:16;100065.12;;;20.83;64.52
55801;BME280;41730;51.960;20.158;2022-09-09T12:36:54;100062.05;;;20.86;64.53
55801;BME280;41730;51.960;20.158;2022-09-09T12:39:33;100061.83;;;20.99;64.04
55801;BME280;41730;51.960;20.158;2022-09-09T12:42:14;100054.63;;;20.88;64.12
55801;BME280;41730;51.960;20.158;2022-09-09T12:44:55;100054.32;;;20.76;64.67
55801;BME280;41730;51.960;20.158;2022-09-09T12:47:33;100065.32;;;20.67;64.80
55801;BME280;41730;51.960;20.158;2022-09-09T12:50:17;100061.90;;;20.71;64.86
55801;BME280;41730;51.960;20.158;2022-09-09T12:52:52;100061.58;;;20.74;64.83
55801;BME280;41730;51.960;20.158;2022-09-09T12:55:24;100058.14;;;20.74;64.59
55801;BME280;41730;51.960;20.158;2022-09-09T12:57:57;100057.34;;;20.71;64.86
55801;BME280;41730;51.960;20.158;2022-09-09T13:00:30;100064.48;;;20.84;64.60
55801;BME280;41730;51.960;20.158;2022-09-09T13:03:13;100065.25;;;20.89;64.25
55801;BME280;41730;51.960;20.158;2022-09-09T13:05:46;100059.98;;;20.93;64.19
55801;BME280;41730;51.960;20.158;2022-09-09T13:08:18;100060.59;;;20.90;63.68
55801;BME280;41730;51.960;20.158;2022-09-09T13:10:52;100057.91;;;20.88;63.64
55801;BME280;41730;51.960;20.158;2022-09-09T13:13:36;100059.89;;;20.89;63.75
55801;BME280;41730;51.960;20.158;2022-09-09T13:16:26;100066.84;;;20.88;63.58
55801;BME280;41730;51.960;20.158;2022-09-09T13:19:02;100063.43;;;20.83;64.07
55801;BME280;41730;51.960;20.158;2022-09-09T13:21:39;100061.77;;;20.96;63.96
55801;BME280;41730;51.960;20.158;2022-09-09T13:24:27;100065.96;;;21.03;63.65
55801;BME280;41730;51.960;20.158;2022-09-09T13:27:01;100063.63;;;21.16;63.28
55801;BME280;41730;51.960;20.158;2022-09-09T13:29:35;100063.77;;;21.15;63.12
55801;BME280;41730;51.960;20.158;2022-09-09T13:32:12;100054.25;;;21.28;62.24
55801;BME280;41730;51.960;20.158;2022-09-09T13:34:54;100055.33;;;21.29;62.37
55801;BME280;41730;51.960;20.158;2022-09-09T13:37:32;100055.90;;;21.26;62.46
55801;BME280;41730;51.960;20.158;2022-09-09T13:40:14;100056.20;;;21.29;62.07
55801;BME280;41730;51.960;20.158;2022-09-09T13:42:50;100052.94;;;21.29;62.42
55801;BME280;41730;51.960;20.158;2022-09-09T13:45:25;100054.64;;;21.33;61.84